sensor_id;sensor_type;location;lat;lon;timestamp;P1;durP1;ratioP1;P2;durP2;ratioP2
4391;SDS011;2210;51.938;8.488;2023-02-18T00:02:39;6.50;;;5.07;;
4391;SDS011;2210;51.938;8.488;2023-02-18T00:06:39;7.70;;;5.90;;
4391;SDS011;2210;51.938;8.488;2023-02-18T00:10:46;10.37;;;6.73;;
4391;SDS011;2210;51.938;8.488;2023-02-18T00:14:47;9.57;;;6.57;;
4391;SDS011;2210;51.938;8.488;2023-02-18T00:18:47;8.60;;;7.37;;
4391;SDS011;2210;51.938;8.488;2023-02-18T00:22:48;12.17;;;8.87;;
4391;SDS011;2210;51.938;8.488;2023-02-18T00:26:49;10.83;;;8.80;;
4391;SDS011;2210;51.938;8.488;2023-02-18T00:30:57;11.77;;;9.10;;
4391;SDS011;2210;51.938;8.488;2023-02-18T00:34:57;11.80;;;9.30;;
4391;SDS011;2210;51.938;8.488;2023-02-18T00:39:01;16.33;;;10.38;;
4391;SDS011;2210;51.938;8.488;2023-02-18T00:43:07;12.93;;;10.03;;
4391;SDS011;2210;51.938;8.488;2023-02-18T00:47:11;14.17;;;10.50;;
4391;SDS011;2210;51.938;8.488;2023-02-18T00:51:11;14.27;;;10.77;;
4391;SDS011;2210;51.938;8.488;2023-02-18T00:55:12;14.73;;;10.70;;
4391;SDS011;2210;51.938;8.488;2023-02-18T00:59:12;13.40;;;11.05;;
4391;SDS011;2210;51.938;8.488;2023-02-18T01:03:12;16.13;;;11.20;;
4391;SDS011;2210;51.938;8.488;2023-02-18T01:07:13;13.97;;;10.60;;
4391;SDS011;2210;51.938;8.488;2023-02-18T01:11:14;19.83;;;11.40;;
4391;SDS011;2210;51.938;8.488;2023-02-18T01:15:15;15.40;;;13.30;;
4391;SDS011;2210;51.938;8.488;2023-02-18T01:19:19;18.03;;;13.07;;
4391;SDS011;2210;51.938;8.488;2023-02-18T01:23:19;19.00;;;12.50;;
4391;SDS011;2210;51.938;8.488;2023-02-18T01:27:22;16.13;;;13.10;;
4391;SDS011;2210;51.938;8.488;2023-02-18T01:31:23;17.87;;;13.43;;
4391;SDS011;2210;51.938;8.488;2023-02-18T01:35:23;16.27;;;13.10;;
4391;SDS011;2210;51.938;8.488;2023-02-18T01:39:26;16.67;;;13.90;;
4391;SDS011;2210;51.938;8.488;2023-02-18T01:43:27;21.90;;;14.10;;
4391;SDS011;2210;51.938;8.488;2023-02-18T01:47:27;17.50;;;14.20;;
4391;SDS011;2210;51.938;8.488;2023-02-18T01:51:28;18.97;;;15.20;;
4391;SDS011;2210;51.938;8.488;2023-02-18T01:55:32;20.07;;;15.23;;
4391;SDS011;2210;51.938;8.488;2023-02-18T01:59:36;18.17;;;15.07;;
4391;SDS011;2210;51.938;8.488;2023-02-18T02:03:39;17.50;;;15.20;;
4391;SDS011;2210;51.938;8.488;2023-02-18T02:07:51;22.50;;;16.55;;
4391;SDS011;2210;51.938;8.488;2023-02-18T02:16:27;25.03;;;17.50;;
4391;SDS011;2210;51.938;8.488;2023-02-18T02:25:16;22.17;;;17.03;;
4391;SDS011;2210;51.938;8.488;2023-02-18T02:47:56;24.80;;;18.53;;
4391;SDS011;2210;51.938;8.488;2023-02-18T02:52:12;24.70;;;18.40;;
4391;SDS011;2210;51.938;8.488;2023-02-18T02:56:22;25.80;;;19.10;;
4391;SDS011;2210;51.938;8.488;2023-02-18T03:05:18;24.43;;;18.43;;
4391;SDS011;2210;51.938;8.488;2023-02-18T03:23:18;26.60;;;16.60;;
4391;SDS011;2210;51.938;8.488;2023-02-18T03:27:24;24.90;;;17.10;;
4391;SDS011;2210;51.938;8.488;2023-02-18T03:31:29;19.57;;;14.33;;
4391;SDS011;2210;51.938;8.488;2023-02-18T03:35:34;19.90;;;14.80;;
4391;SDS011;2210;51.938;8.488;2023-02-18T03:39:39;25.63;;;16.07;;
4391;SDS011;2210;51.938;8.488;2023-02-18T03:43:59;23.30;;;15.37;;
4391;SDS011;2210;51.938;8.488;2023-02-18T03:48:05;15.87;;;12.23;;
4391;SDS011;2210;51.938;8.488;2023-02-18T03:52:08;15.47;;;12.87;;
4391;SDS011;2210;51.938;8.488;2023-02-18T03:56:10;15.53;;;11.93;;
4391;SDS011;2210;51.938;8.488;2023-02-18T04:00:17;18.77;;;11.77;;
4391;SDS011;2210;51.938;8.488;2023-02-18T04:04:24;14.87;;;12.97;;
4391;SDS011;2210;51.938;8.488;2023-02-18T04:08:27;15.20;;;12.33;;
4391;SDS011;2210;51.938;8.488;2023-02-18T04:12:30;13.87;;;12.10;;
4391;SDS011;2210;51.938;8.488;2023-02-18T04:16:40;19.07;;;12.80;;
4391;SDS011;2210;51.938;8.488;2023-02-18T04:20:41;17.70;;;14.20;;
4391;SDS011;2210;51.938;8.488;2023-02-18T04:24:41;18.80;;;14.40;;
4391;SDS011;2210;51.938;8.488;2023-02-18T04:33:12;17.77;;;15.67;;
4391;SDS011;2210;51.938;8.488;2023-02-18T04:37:19;21.47;;;17.43;;
4391;SDS011;2210;51.938;8.488;2023-02-18T04:41:19;22.00;;;18.30;;
4391;SDS011;2210;51.938;8.488;2023-02-18T04:45:19;26.83;;;19.10;;
4391;SDS011;2210;51.938;8.488;2023-02-18T04:49:26;26.40;;;19.75;;
4391;SDS011;2210;51.938;8.488;2023-02-18T04:53:26;23.33;;;18.60;;
4391;SDS011;2210;51.938;8.488;2023-02-18T04:57:32;21.80;;;16.85;;
4391;SDS011;2210;51.938;8.488;2023-02-18T05:01:42;25.37;;;18.40;;
4391;SDS011;2210;51.938;8.488;2023-02-18T05:05:48;24.30;;;19.70;;
4391;SDS011;2210;51.938;8.488;2023-02-18T05:09:49;27.27;;;19.07;;
4391;SDS011;2210;51.938;8.488;2023-02-18T05:13:58;26.10;;;20.07;;
4391;SDS011;2210;51.938;8.488;2023-02-18T05:18:08;21.23;;;17.63;;
4391;SDS011;2210;51.938;8.488;2023-02-18T05:22:11;21.77;;;17.87;;
4391;SDS011;2210;51.938;8.488;2023-02-18T05:26:11;22.27;;;18.87;;
4391;SDS011;2210;51.938;8.488;2023-02-18T05:30:12;20.57;;;16.43;;
4391;SDS011;2210;51.938;8.488;2023-02-18T05:34:18;16.73;;;14.03;;
4391;SDS011;2210;51.938;8.488;2023-02-18T05:38:30;16.90;;;14.67;;
4391;SDS011;2210;51.938;8.488;2023-02-18T05:42:33;18.53;;;13.97;;
4391;SDS011;2210;51.938;8.488;2023-02-18T05:46:46;14.80;;;12.70;;
4391;SDS011;2210;51.938;8.488;2023-02-18T05:50:49;14.10;;;11.00;;
4391;SDS011;2210;51.938;8.488;2023-02-18T05:54:52;14.90;;;11.03;;
4391;SDS011;2210;51.938;8.488;2023-02-18T05:58:59;13.40;;;11.40;;
4391;SDS011;2210;51.938;8.488;2023-02-18T06:02:59;11.23;;;9.60;;
4391;SDS011;2210;51.938;8.488;2023-02-18T06:06:59;14.03;;;11.50;;
4391;SDS011;2210;51.938;8.488;2023-02-18T06:11:02;14.65;;;12.02;;
4391;SDS011;2210;51.938;8.488;2023-02-18T06:15:03;15.23;;;11.17;;
4391;SDS011;2210;51.938;8.488;2023-02-18T06:19:03;11.70;;;10.33;;
4391;SDS011;2210;51.938;8.488;2023-02-18T06:23:07;11.17;;;9.20;;
4391;SDS011;2210;51.938;8.488;2023-02-18T06:27:10;9.67;;;8.60;;
4391;SDS011;2210;51.938;8.488;2023-02-18T06:31:10;9.80;;;7.60;;
4391;SDS011;2210;51.938;8.488;2023-02-18T06:35:10;7.20;;;6.20;;
4391;SDS011;2210;51.938;8.488;2023-02-18T06:39:17;5.30;;;4.80;;
4391;SDS011;2210;51.938;8.488;2023-02-18T06:43:18;4.37;;;3.90;;
4391;SDS011;2210;51.938;8.488;2023-02-18T06:47:19;5.17;;;4.67;;
4391;SDS011;2210;51.938;8.488;2023-02-18T06:51:25;5.33;;;4.30;;
4391;SDS011;2210;51.938;8.488;2023-02-18T06:55:37;4.53;;;3.60;;
4391;SDS011;2210;51.938;8.488;2023-02-18T06:59:40;4.33;;;3.90;;
4391;SDS011;2210;51.938;8.488;2023-02-18T07:03:43;3.53;;;3.23;;
4391;SDS011;2210;51.938;8.488;2023-02-18T07:07:44;4.03;;;3.70;;
4391;SDS011;2210;51.938;8.488;2023-02-18T07:11:47;3.93;;;3.57;;
4391;SDS011;2210;51.938;8.488;2023-02-18T07:15:51;3.60;;;3.33;;
4391;SDS011;2210;51.938;8.488;2023-02-18T07:20:00;3.33;;;3.13;;
4391;SDS011;2210;51.938;8.488;2023-02-18T07:24:01;3.17;;;2.97;;
4391;SDS011;2210;51.938;8.488;2023-02-18T07:28:02;2.80;;;2.60;;
4391;SDS011;2210;51.938;8.488;2023-02-18T07:32:02;2.50;;;2.40;;
4391;SDS011;2210;51.938;8.488;2023-02-18T07:36:02;3.40;;;3.17;;
4391;SDS011;2210;51.938;8.488;2023-02-18T07:40:06;2.10;;;2.00;;
4391;SDS011;2210;51.938;8.488;2023-02-18T07:44:06;2.10;;;2.00;;
4391;SDS011;2210;51.938;8.488;2023-02-18T07:48:07;2.90;;;2.70;;
4391;SDS011;2210;51.938;8.488;2023-02-18T07:52:07;4.17;;;2.70;;
4391;SDS011;2210;51.938;8.488;2023-02-18T07:56:07;3.37;;;3.07;;
4391;SDS011;2210;51.938;8.488;2023-02-18T08:00:14;3.47;;;2.70;;
4391;SDS011;2210;51.938;8.488;2023-02-18T08:04:18;4.07;;;3.70;;
4391;SDS011;2210;51.938;8.488;2023-02-18T08:08:19;4.37;;;3.90;;
4391;SDS011;2210;51.938;8.488;2023-02-18T08:12:31;5.90;;;4.60;;
4391;SDS011;2210;51.938;8.488;2023-02-18T08:16:37;4.20;;;3.90;;
4391;SDS011;2210;51.938;8.488;2023-02-18T08:20:37;4.70;;;4.33;;
4391;SDS011;2210;51.938;8.488;2023-02-18T08:24:53;4.20;;;3.80;;
4391;SDS011;2210;51.938;8.488;2023-02-18T08:29:04;4.30;;;3.90;;
4391;SDS011;2210;51.938;8.488;2023-02-18T08:33:07;4.87;;;4.40;;
4391;SDS011;2210;51.938;8.488;2023-02-18T08:37:13;5.10;;;4.60;;
4391;SDS011;2210;51.938;8.488;2023-02-18T08:41:13;4.80;;;4.10;;
4391;SDS011;2210;51.938;8.488;2023-02-18T08:45:14;5.93;;;4.33;;
4391;SDS011;2210;51.938;8.488;2023-02-18T08:49:15;4.95;;;3.92;;
4391;SDS011;2210;51.938;8.488;2023-02-18T08:53:19;6.50;;;4.90;;
4391;SDS011;2210;51.938;8.488;2023-02-18T08:57:19;5.17;;;4.63;;
4391;SDS011;2210;51.938;8.488;2023-02-18T09:01:26;4.70;;;4.25;;
4391;SDS011;2210;51.938;8.488;2023-02-18T09:05:29;5.60;;;4.43;;
4391;SDS011;2210;51.938;8.488;2023-02-18T09:09:35;4.97;;;4.47;;
4391;SDS011;2210;51.938;8.488;2023-02-18T09:13:35;3.93;;;3.53;;
4391;SDS011;2210;51.938;8.488;2023-02-18T09:17:36;4.50;;;3.80;;
4391;SDS011;2210;51.938;8.488;2023-02-18T09:21:36;4.77;;;4.37;;
4391;SDS011;2210;51.938;8.488;2023-02-18T09:25:38;3.63;;;3.40;;
4391;SDS011;2210;51.938;8.488;2023-02-18T09:29:39;4.73;;;4.30;;
4391;SDS011;2210;51.938;8.488;2023-02-18T09:33:42;5.23;;;4.40;;
4391;SDS011;2210;51.938;8.488;2023-02-18T09:37:44;4.93;;;4.20;;
4391;SDS011;2210;51.938;8.488;2023-02-18T09:42:00;5.60;;;4.00;;
4391;SDS011;2210;51.938;8.488;2023-02-18T09:46:03;7.03;;;5.90;;
4391;SDS011;2210;51.938;8.488;2023-02-18T09:54:53;7.17;;;6.57;;
4391;SDS011;2210;51.938;8.488;2023-02-18T09:58:54;8.80;;;8.00;;
4391;SDS011;2210;51.938;8.488;2023-02-18T10:03:16;7.20;;;6.40;;
4391;SDS011;2210;51.938;8.488;2023-02-18T10:07:28;6.27;;;5.67;;
4391;SDS011;2210;51.938;8.488;2023-02-18T10:11:35;6.33;;;5.73;;
4391;SDS011;2210;51.938;8.488;2023-02-18T10:15:40;5.90;;;5.23;;
4391;SDS011;2210;51.938;8.488;2023-02-18T10:19:45;6.03;;;5.17;;
4391;SDS011;2210;51.938;8.488;2023-02-18T10:24:04;6.23;;;5.40;;
4391;SDS011;2210;51.938;8.488;2023-02-18T10:28:10;5.77;;;5.20;;
4391;SDS011;2210;51.938;8.488;2023-02-18T10:32:15;6.03;;;5.23;;
4391;SDS011;2210;51.938;8.488;2023-02-18T10:36:28;4.97;;;4.57;;
4391;SDS011;2210;51.938;8.488;2023-02-18T10:40:42;5.57;;;4.93;;
4391;SDS011;2210;51.938;8.488;2023-02-18T11:03:00;5.53;;;4.93;;
4391;SDS011;2210;51.938;8.488;2023-02-18T11:07:12;7.53;;;6.70;;
4391;SDS011;2210;51.938;8.488;2023-02-18T11:11:27;8.40;;;6.10;;
4391;SDS011;2210;51.938;8.488;2023-02-18T11:15:30;8.23;;;6.40;;
4391;SDS011;2210;51.938;8.488;2023-02-18T11:19:37;7.80;;;6.47;;
4391;SDS011;2210;51.938;8.488;2023-02-18T11:23:48;7.80;;;5.90;;
4391;SDS011;2210;51.938;8.488;2023-02-18T11:27:54;12.27;;;9.10;;
4391;SDS011;2210;51.938;8.488;2023-02-18T11:31:56;9.73;;;7.83;;
4391;SDS011;2210;51.938;8.488;2023-02-18T11:35:57;7.23;;;6.07;;
4391;SDS011;2210;51.938;8.488;2023-02-18T11:40:02;12.23;;;7.03;;
4391;SDS011;2210;51.938;8.488;2023-02-18T11:44:15;10.10;;;6.07;;
4391;SDS011;2210;51.938;8.488;2023-02-18T11:48:22;8.10;;;6.40;;
4391;SDS011;2210;51.938;8.488;2023-02-18T11:52:26;6.50;;;5.60;;
4391;SDS011;2210;51.938;8.488;2023-02-18T11:56:33;6.67;;;5.60;;
4391;SDS011;2210;51.938;8.488;2023-02-18T12:00:42;5.37;;;4.87;;
4391;SDS011;2210;51.938;8.488;2023-02-18T12:04:45;6.63;;;5.17;;
4391;SDS011;2210;51.938;8.488;2023-02-18T12:08:51;5.60;;;5.10;;
4391;SDS011;2210;51.938;8.488;2023-02-18T12:22:09;4.27;;;3.97;;
4391;SDS011;2210;51.938;8.488;2023-02-18T12:31:04;3.60;;;3.03;;
4391;SDS011;2210;51.938;8.488;2023-02-18T12:40:20;7.53;;;3.30;;
4391;SDS011;2210;51.938;8.488;2023-02-18T12:44:57;6.10;;;2.60;;
4391;SDS011;2210;51.938;8.488;2023-02-18T12:49:28;3.10;;;2.80;;
4391;SDS011;2210;51.938;8.488;2023-02-18T12:58:49;5.33;;;3.40;;
4391;SDS011;2210;51.938;8.488;2023-02-18T13:12:06;3.30;;;3.00;;
4391;SDS011;2210;51.938;8.488;2023-02-18T13:16:14;4.70;;;2.90;;
4391;SDS011;2210;51.938;8.488;2023-02-18T13:25:02;4.50;;;3.77;;
4391;SDS011;2210;51.938;8.488;2023-02-18T13:29:07;5.13;;;4.60;;
4391;SDS011;2210;51.938;8.488;2023-02-18T13:42:37;3.67;;;3.37;;
4391;SDS011;2210;51.938;8.488;2023-02-18T13:51:04;3.67;;;3.27;;
4391;SDS011;2210;51.938;8.488;2023-02-18T13:55:05;4.13;;;3.30;;
4391;SDS011;2210;51.938;8.488;2023-02-18T14:03:54;4.70;;;3.87;;
4391;SDS011;2210;51.938;8.488;2023-02-18T14:08:07;4.00;;;3.70;;
4391;SDS011;2210;51.938;8.488;2023-02-18T14:21:19;4.17;;;3.87;;
4391;SDS011;2210;51.938;8.488;2023-02-18T14:25:48;4.27;;;3.87;;
4391;SDS011;2210;51.938;8.488;2023-02-18T14:29:49;4.13;;;3.73;;
4391;SDS011;2210;51.938;8.488;2023-02-18T14:47:23;4.23;;;3.87;;
4391;SDS011;2210;51.938;8.488;2023-02-18T14:51:38;4.63;;;4.07;;
4391;SDS011;2210;51.938;8.488;2023-02-18T14:55:50;3.97;;;3.57;;
4391;SDS011;2210;51.938;8.488;2023-02-18T14:59:57;4.77;;;4.27;;
4391;SDS011;2210;51.938;8.488;2023-02-18T15:03:59;3.83;;;3.53;;
4391;SDS011;2210;51.938;8.488;2023-02-18T15:08:05;5.77;;;4.30;;
4391;SDS011;2210;51.938;8.488;2023-02-18T15:12:13;5.17;;;4.60;;
4391;SDS011;2210;51.938;8.488;2023-02-18T15:16:51;5.20;;;4.70;;
4391;SDS011;2210;51.938;8.488;2023-02-18T15:20:45;4.10;;;3.60;;
4391;SDS011;2210;51.938;8.488;2023-02-18T15:24:46;4.17;;;3.77;;
4391;SDS011;2210;51.938;8.488;2023-02-18T15:28:58;4.17;;;3.77;;
4391;SDS011;2210;51.938;8.488;2023-02-18T15:33:00;4.53;;;3.80;;
4391;SDS011;2210;51.938;8.488;2023-02-18T15:37:09;5.20;;;4.70;;
4391;SDS011;2210;51.938;8.488;2023-02-18T15:41:14;6.23;;;4.37;;
4391;SDS011;2210;51.938;8.488;2023-02-18T15:54:17;4.47;;;3.87;;
4391;SDS011;2210;51.938;8.488;2023-02-18T16:07:04;3.83;;;3.53;;
4391;SDS011;2210;51.938;8.488;2023-02-18T16:11:21;5.13;;;3.30;;
4391;SDS011;2210;51.938;8.488;2023-02-18T16:15:37;4.23;;;3.17;;
4391;SDS011;2210;51.938;8.488;2023-02-18T16:28:40;3.97;;;2.90;;
4391;SDS011;2210;51.938;8.488;2023-02-18T16:32:42;3.83;;;3.50;;
4391;SDS011;2210;51.938;8.488;2023-02-18T16:36:43;6.70;;;4.00;;
4391;SDS011;2210;51.938;8.488;2023-02-18T16:41:09;7.70;;;3.57;;
4391;SDS011;2210;51.938;8.488;2023-02-18T16:45:11;4.33;;;3.10;;
4391;SDS011;2210;51.938;8.488;2023-02-18T16:49:14;6.00;;;3.73;;
4391;SDS011;2210;51.938;8.488;2023-02-18T16:53:15;9.87;;;3.77;;
4391;SDS011;2210;51.938;8.488;2023-02-18T16:57:16;4.00;;;3.60;;
4391;SDS011;2210;51.938;8.488;2023-02-18T17:01:30;4.00;;;3.60;;
4391;SDS011;2210;51.938;8.488;2023-02-18T17:05:37;6.07;;;3.60;;
4391;SDS011;2210;51.938;8.488;2023-02-18T17:09:46;9.53;;;4.37;;
4391;SDS011;2210;51.938;8.488;2023-02-18T17:13:47;10.97;;;4.93;;
4391;SDS011;2210;51.938;8.488;2023-02-18T17:25:52;10.80;;;5.67;;
4391;SDS011;2210;51.938;8.488;2023-02-18T17:30:01;7.47;;;5.00;;
4391;SDS011;2210;51.938;8.488;2023-02-18T17:34:08;8.93;;;5.40;;
4391;SDS011;2210;51.938;8.488;2023-02-18T17:38:14;8.57;;;5.40;;
4391;SDS011;2210;51.938;8.488;2023-02-18T17:42:16;6.13;;;4.73;;
4391;SDS011;2210;51.938;8.488;2023-02-18T17:46:18;9.53;;;5.63;;
4391;SDS011;2210;51.938;8.488;2023-02-18T17:50:18;6.90;;;5.30;;
4391;SDS011;2210;51.938;8.488;2023-02-18T17:54:19;10.80;;;5.35;;
4391;SDS011;2210;51.938;8.488;2023-02-18T17:58:21;7.80;;;5.23;;
4391;SDS011;2210;51.938;8.488;2023-02-18T18:02:27;8.40;;;5.53;;
4391;SDS011;2210;51.938;8.488;2023-02-18T18:06:28;6.63;;;4.87;;
4391;SDS011;2210;51.938;8.488;2023-02-18T18:10:29;8.20;;;5.97;;
4391;SDS011;2210;51.938;8.488;2023-02-18T18:14:38;8.37;;;5.10;;
4391;SDS011;2210;51.938;8.488;2023-02-18T18:18:44;10.00;;;5.32;;
4391;SDS011;2210;51.938;8.488;2023-02-18T18:22:51;8.43;;;6.10;;
4391;SDS011;2210;51.938;8.488;2023-02-18T18:26:53;9.50;;;5.43;;
4391;SDS011;2210;51.938;8.488;2023-02-18T18:31:07;9.73;;;5.30;;
4391;SDS011;2210;51.938;8.488;2023-02-18T18:39:46;7.83;;;5.40;;
4391;SDS011;2210;51.938;8.488;2023-02-18T18:43:49;8.05;;;4.82;;
4391;SDS011;2210;51.938;8.488;2023-02-18T18:47:50;8.67;;;5.40;;
4391;SDS011;2210;51.938;8.488;2023-02-18T18:51:50;9.87;;;5.00;;
4391;SDS011;2210;51.938;8.488;2023-02-18T18:55:52;10.77;;;5.78;;
4391;SDS011;2210;51.938;8.488;2023-02-18T19:00:03;6.90;;;5.10;;
4391;SDS011;2210;51.938;8.488;2023-02-18T19:04:04;18.07;;;9.87;;
4391;SDS011;2210;51.938;8.488;2023-02-18T19:08:05;8.50;;;6.00;;
4391;SDS011;2210;51.938;8.488;2023-02-18T19:12:07;7.70;;;5.20;;
4391;SDS011;2210;51.938;8.488;2023-02-18T19:16:16;6.07;;;5.10;;
4391;SDS011;2210;51.938;8.488;2023-02-18T19:20:37;15.90;;;5.60;;
4391;SDS011;2210;51.938;8.488;2023-02-18T19:24:37;9.97;;;5.47;;
4391;SDS011;2210;51.938;8.488;2023-02-18T19:28:44;11.32;;;5.65;;
4391;SDS011;2210;51.938;8.488;2023-02-18T19:32:45;9.90;;;6.20;;
4391;SDS011;2210;51.938;8.488;2023-02-18T19:36:48;6.50;;;5.70;;
4391;SDS011;2210;51.938;8.488;2023-02-18T19:40:48;10.07;;;5.50;;
4391;SDS011;2210;51.938;8.488;2023-02-18T19:44:48;11.47;;;7.33;;
4391;SDS011;2210;51.938;8.488;2023-02-18T19:48:49;9.15;;;5.57;;
4391;SDS011;2210;51.938;8.488;2023-02-18T19:53:09;7.07;;;5.30;;
4391;SDS011;2210;51.938;8.488;2023-02-18T19:57:10;7.47;;;4.47;;
4391;SDS011;2210;51.938;8.488;2023-02-18T20:01:13;5.80;;;3.83;;
4391;SDS011;2210;51.938;8.488;2023-02-18T20:05:16;6.47;;;3.87;;
4391;SDS011;2210;51.938;8.488;2023-02-18T20:09:20;8.87;;;4.47;;
4391;SDS011;2210;51.938;8.488;2023-02-18T20:13:20;6.53;;;4.20;;
4391;SDS011;2210;51.938;8.488;2023-02-18T20:17:23;10.02;;;7.15;;
4391;SDS011;2210;51.938;8.488;2023-02-18T20:21:24;6.80;;;4.20;;
4391;SDS011;2210;51.938;8.488;2023-02-18T20:25:25;7.63;;;4.50;;
4391;SDS011;2210;51.938;8.488;2023-02-18T20:29:45;5.27;;;4.70;;
4391;SDS011;2210;51.938;8.488;2023-02-18T20:33:45;8.30;;;4.77;;
4391;SDS011;2210;51.938;8.488;2023-02-18T20:37:48;9.50;;;5.55;;
4391;SDS011;2210;51.938;8.488;2023-02-18T20:41:51;14.13;;;5.90;;
4391;SDS011;2210;51.938;8.488;2023-02-18T20:45:51;8.50;;;6.20;;
4391;SDS011;2210;51.938;8.488;2023-02-18T20:49:52;9.38;;;6.80;;
4391;SDS011;2210;51.938;8.488;2023-02-18T20:53:55;12.55;;;7.75;;
4391;SDS011;2210;51.938;8.488;2023-02-18T20:57:55;8.63;;;7.47;;
4391;SDS011;2210;51.938;8.488;2023-02-18T21:01:56;9.63;;;7.88;;
4391;SDS011;2210;51.938;8.488;2023-02-18T21:06:00;11.52;;;9.65;;
4391;SDS011;2210;51.938;8.488;2023-02-18T21:10:05;12.70;;;7.60;;
4391;SDS011;2210;51.938;8.488;2023-02-18T21:14:06;11.80;;;9.70;;
4391;SDS011;2210;51.938;8.488;2023-02-18T21:18:07;13.17;;;10.50;;
4391;SDS011;2210;51.938;8.488;2023-02-18T21:22:07;12.37;;;9.00;;
4391;SDS011;2210;51.938;8.488;2023-02-18T21:26:09;10.13;;;8.97;;
4391;SDS011;2210;51.938;8.488;2023-02-18T21:30:13;15.00;;;9.13;;
4391;SDS011;2210;51.938;8.488;2023-02-18T21:34:14;18.00;;;10.70;;
4391;SDS011;2210;51.938;8.488;2023-02-18T21:38:14;16.07;;;9.90;;
4391;SDS011;2210;51.938;8.488;2023-02-18T21:42:14;14.20;;;11.65;;
4391;SDS011;2210;51.938;8.488;2023-02-18T21:46:16;18.40;;;11.87;;
4391;SDS011;2210;51.938;8.488;2023-02-18T21:50:22;15.70;;;11.30;;
4391;SDS011;2210;51.938;8.488;2023-02-18T21:54:26;13.60;;;10.63;;
4391;SDS011;2210;51.938;8.488;2023-02-18T21:58:48;13.70;;;10.70;;
4391;SDS011;2210;51.938;8.488;2023-02-18T22:02:48;16.07;;;12.70;;
4391;SDS011;2210;51.938;8.488;2023-02-18T22:06:48;13.90;;;12.20;;
4391;SDS011;2210;51.938;8.488;2023-02-18T22:10:52;13.23;;;11.07;;
4391;SDS011;2210;51.938;8.488;2023-02-18T22:14:58;13.03;;;10.90;;
4391;SDS011;2210;51.938;8.488;2023-02-18T22:19:01;13.33;;;10.57;;
4391;SDS011;2210;51.938;8.488;2023-02-18T22:23:08;13.60;;;10.83;;
4391;SDS011;2210;51.938;8.488;2023-02-18T22:27:14;14.17;;;11.17;;
4391;SDS011;2210;51.938;8.488;2023-02-18T22:31:24;14.17;;;11.33;;
4391;SDS011;2210;51.938;8.488;2023-02-18T22:35:29;13.40;;;10.30;;
4391;SDS011;2210;51.938;8.488;2023-02-18T22:39:29;12.53;;;9.47;;
4391;SDS011;2210;51.938;8.488;2023-02-18T22:43:30;11.97;;;10.20;;
4391;SDS011;2210;51.938;8.488;2023-02-18T22:47:30;12.90;;;10.10;;
4391;SDS011;2210;51.938;8.488;2023-02-18T22:51:35;13.52;;;11.13;;
4391;SDS011;2210;51.938;8.488;2023-02-18T22:55:37;13.80;;;10.70;;
4391;SDS011;2210;51.938;8.488;2023-02-18T22:59:43;14.73;;;10.65;;
4391;SDS011;2210;51.938;8.488;2023-02-18T23:03:44;11.53;;;10.33;;
4391;SDS011;2210;51.938;8.488;2023-02-18T23:07:44;13.73;;;9.70;;
4391;SDS011;2210;51.938;8.488;2023-02-18T23:11:47;13.27;;;9.97;;
4391;SDS011;2210;51.938;8.488;2023-02-18T23:16:00;14.77;;;10.33;;
4391;SDS011;2210;51.938;8.488;2023-02-18T23:20:05;16.93;;;11.47;;
4391;SDS011;2210;51.938;8.488;2023-02-18T23:24:06;15.30;;;11.90;;
4391;SDS011;2210;51.938;8.488;2023-02-18T23:28:09;15.27;;;11.05;;
4391;SDS011;2210;51.938;8.488;2023-02-18T23:32:12;18.90;;;12.73;;
4391;SDS011;2210;51.938;8.488;2023-02-18T23:36:26;16.00;;;11.23;;
4391;SDS011;2210;51.938;8.488;2023-02-18T23:40:27;15.50;;;10.83;;
4391;SDS011;2210;51.938;8.488;2023-02-18T23:44:28;14.80;;;11.77;;
4391;SDS011;2210;51.938;8.488;2023-02-18T23:48:33;11.93;;;10.33;;
4391;SDS011;2210;51.938;8.488;2023-02-18T23:52:34;15.00;;;10.70;;
4391;SDS011;2210;51.938;8.488;2023-02-18T23:56:37;9.80;;;8.80;;
